Thunder radar more information blitzortung!


Radar de pluja more information rain snow radar


Visita la nostra xarxa de llocs de meteo:

Template documentation
and downloads

And another site



No particular awareness of the weather is required.    There are no Weather-warnings

Pagina Historial Weather Underground text

Diari Resum Juny 20, 2017 Unitats:  Mètric    Imperial   Tant
« Previous Dia
SegĂźent Dia »
Diari Setmana Mensual Anual Personalitzada
  Maxima: Minima: Media:
Temperatura: -17.8 °C -6.6 °C -2.6 °C
Punt de rosada: -17.8 °C -10.9 °C -9.2 °C
Humitat: Humidity % 34 % 50 %
Wind Speed: 0 km/h 0 km/h 14.6 km/h
RĂ fegues de vent: 0 km/h - -
Vent:- - SW
Pression baro: 0 hPa 34327.3 hPa -
Precipitacions: 0 mm    
Historical Graphs
 
 
Dades de taula per Juny 20, 2017
Temps Temperatura Punt de rosada Pression baro Vent Wind Speed RĂ fegues de vent Humitat Rainfall Rate (Hourly)
-17.8 °C -17.8 °C 0 hPa Calm     Humidity % 0 mm
00:00 -6.2 °C -7.9 °C 34395 hPa SW 2.6 km/h 5.1 km/h 82 % 0 mm
00:04 -4.8 °C -8 °C 34462.7 hPa SW 6 km/h 6 km/h 70 % 0 mm
00:10 -6.2 °C -8 °C 34428.8 hPa SW 2.6 km/h 5.1 km/h 82 % 0 mm
00:20 -6.3 °C -8.1 °C 34395 hPa WSW 2.6 km/h 5.1 km/h 82 % 0 mm
00:30 -6.3 °C -8.1 °C 34395 hPa Calm   5.1 km/h 82 % 0 mm
00:40 -6.4 °C -8.2 °C 34395 hPa WSW 2.6 km/h 2.6 km/h 82 % 0 mm
00:50 -6.4 °C -8.2 °C 34395 hPa Calm   2.6 km/h 82 % 0 mm
01:00 -6.5 °C -8.4 °C 34395 hPa SW 2.6 km/h 2.6 km/h 81 % 0 mm
01:10 -6.5 °C -8.4 °C 34395 hPa SW 2.6 km/h 2.6 km/h 81 % 0 mm
01:20 -6.4 °C -8.2 °C 34395 hPa SSW 2.6 km/h 2.6 km/h 82 % 0 mm
01:30 -6.5 °C -8.3 °C 34395 hPa Calm     82 % 0 mm
01:40 -6.6 °C -8.4 °C 34395 hPa SSE 2.6 km/h 2.6 km/h 81 % 0 mm
01:50 -6.6 °C -8.4 °C 34395 hPa Calm   2.6 km/h 81 % 0 mm
02:10 -6.3 °C -8.2 °C 34395 hPa NNE 2.6 km/h 5.1 km/h 81 % 0 mm
02:20 -6.2 °C -8.1 °C 34395 hPa NE 2.6 km/h 2.6 km/h 81 % 0 mm
02:30 -6.2 °C -8.1 °C 34395 hPa Calm     81 % 0 mm
02:40 -6.1 °C -8.2 °C 34395 hPa NE 2.6 km/h 5.1 km/h 79 % 0 mm
02:50 -5.9 °C -7.9 °C 34428.8 hPa Calm   5.1 km/h 80 % 0 mm
03:00 -5.7 °C -7.8 °C 34428.8 hPa SSE 2.6 km/h 2.6 km/h 79 % 0 mm
03:10 -5.9 °C -8.1 °C 34428.8 hPa SE 2.6 km/h 7.7 km/h 78 % 0 mm
03:20 -5.6 °C -7.8 °C 34428.8 hPa East 5.1 km/h 7.7 km/h 78 % 0 mm
03:30 -5.4 °C -7.7 °C 34428.8 hPa ENE 5.1 km/h 5.1 km/h 77 % 0 mm
03:40 -5.1 °C -7.6 °C 34428.8 hPa East 2.6 km/h 5.1 km/h 76 % 0 mm
03:50 -4.7 °C -7.3 °C 34428.8 hPa SSW 2.6 km/h 5.1 km/h 75 % 0 mm
04:00 -4.4 °C -7.1 °C 34428.8 hPa SW 5.1 km/h 5.1 km/h 74 % 0 mm
04:10 -4.2 °C -6.9 °C 34428.8 hPa SW 2.6 km/h 12.9 km/h 74 % 0 mm
04:20 -4.1 °C -6.8 °C 34462.7 hPa SW 5.1 km/h 10.3 km/h 74 % 0 mm
04:30 -3.7 °C -6.7 °C 34462.7 hPa SW 7.7 km/h 12.9 km/h 72 % 0 mm
04:40 -3.8 °C -6.8 °C 34462.7 hPa SW 7.7 km/h 12.9 km/h 72 % 0 mm
04:50 -3.7 °C -6.8 °C 34462.7 hPa SW 5.1 km/h 20.8 km/h 71 % 0 mm
05:00 -3.4 °C -7.1 °C 34462.7 hPa SSW 18.2 km/h 18.2 km/h 67 % 0 mm
05:10 -3.1 °C -6.9 °C 34462.7 hPa SSW 12.9 km/h 20.8 km/h 66 % 0 mm
05:20 -2.8 °C -6.9 °C 34462.7 hPa WSW 7.7 km/h 15.6 km/h 64 % 0 mm
05:30 -2.4 °C -6.9 °C 34462.7 hPa West 7.7 km/h 7.7 km/h 61 % 0 mm
05:40 -2.4 °C -7.4 °C 34462.7 hPa SW 12.9 km/h 25.9 km/h 58 % 0 mm
05:50 -2.2 °C -7.4 °C 34462.7 hPa SW 7.7 km/h 20.8 km/h 57 % 0 mm
10:56 -1.9 °C -7.4 °C 34462.7 hPa SSE 14 km/h 14.5 km/h 55 % 0 mm
11:01 -1.9 °C -7.7 °C 34462.7 hPa SW 11.9 km/h 11.9 km/h 53 % 0 mm
11:06 -1.6 °C -7.7 °C 34462.7 hPa WSW 26.4 km/h 26.4 km/h 52 % 0 mm
11:11 -1.7 °C -7.7 °C 34462.7 hPa SW 23.8 km/h 23.8 km/h 52 % 0 mm
11:16 -1.7 °C -7.9 °C 34462.7 hPa SSE 20.9 km/h 20.9 km/h 51 % 0 mm
11:21 -1.7 °C -8.1 °C 34462.7 hPa SW 17.9 km/h 17.9 km/h 50 % 0 mm
11:26 -1.6 °C -8 °C 34462.7 hPa SW 17.9 km/h 17.9 km/h 50 % 0 mm
11:31 -1.4 °C -7.8 °C 34428.8 hPa WSW 11.9 km/h 11.9 km/h 50 % 0 mm
11:36 -1.2 °C -7.6 °C 34428.8 hPa SW 16.1 km/h 16.1 km/h 50 % 0 mm
11:41 -1.4 °C -8 °C 34428.8 hPa SW 23.8 km/h 23.8 km/h 49 % 0 mm
11:46 -1.2 °C -7.7 °C 34428.8 hPa WSW 16.6 km/h 16.6 km/h 49 % 0 mm
11:51 -1.1 °C -7.7 °C 34428.8 hPa SSW 17.9 km/h 17.9 km/h 49 % 0 mm
11:56 -1.1 °C -7.9 °C 34428.8 hPa SW 20.9 km/h 20.9 km/h 48 % 0 mm
12:01 -1.1 °C -7.9 °C 34462.7 hPa West 15 km/h 15 km/h 48 % 0 mm
12:06 -1.1 °C -8 °C 34462.7 hPa WSW 26.4 km/h 26.4 km/h 47 % 0 mm
12:11 -1.1 °C -8.1 °C 34462.7 hPa SW 20.9 km/h 20.9 km/h 47 % 0 mm
12:16 -0.8 °C -7.8 °C 34428.8 hPa South 23.8 km/h 23.8 km/h 47 % 0 mm
12:21 -0.8 °C -8 °C 34428.8 hPa West 23.8 km/h 23.8 km/h 46 % 0 mm
12:26 -0.9 °C -8.1 °C 34428.8 hPa SW 17.9 km/h 17.9 km/h 46 % 0 mm
12:31 -0.7 °C -7.9 °C 34428.8 hPa SSW 15 km/h 15 km/h 46 % 0 mm
12:36 -0.9 °C -8.3 °C 34428.8 hPa SSW 29.8 km/h 29.8 km/h 45 % 0 mm
12:41 -0.5 °C -7.9 °C 34428.8 hPa SW 15 km/h 15 km/h 45 % 0 mm
12:46 -0.3 °C -7.9 °C 34428.8 hPa SW 15 km/h 15 km/h 44 % 0 mm
12:51 -0.2 °C -8 °C 34428.8 hPa SSW 15 km/h 15 km/h 43 % 0 mm
12:56 -0.4 °C -8.4 °C 34428.8 hPa South 23.8 km/h 23.8 km/h 42 % 0 mm
13:01 -0.4 °C -8.3 °C 34428.8 hPa SW 23.8 km/h 23.8 km/h 43 % 0 mm
13:06 0.1 °C -7.7 °C 34428.8 hPa SW 15 km/h 15 km/h 43 % 0 mm
13:11 -0.1 °C -8.1 °C 34428.8 hPa South 20.9 km/h 20.9 km/h 42 % 0 mm
13:16 0.1 °C -7.9 °C 34395 hPa SW 15 km/h 15 km/h 42 % 0 mm
13:21 0.1 °C -8.2 °C 34395 hPa WSW 20.9 km/h 20.9 km/h 41 % 0 mm
13:26 -0.3 °C -8.7 °C 34395 hPa SW 17.9 km/h 17.9 km/h 40 % 0 mm
13:31 0 °C -8.5 °C 34395 hPa SSE 17.9 km/h 17.9 km/h 40 % 0 mm
13:36 0 °C -8.5 °C 34395 hPa SW 16.1 km/h 16.1 km/h 40 % 0 mm
13:41 -0.2 °C -8.7 °C 34395 hPa ESE 23.8 km/h 23.8 km/h 40 % 0 mm
13:46 -0.1 °C -8.6 °C 34395 hPa South 12.7 km/h 12.7 km/h 40 % 0 mm
13:51 0.2 °C -8.3 °C 34395 hPa SSW 20.9 km/h 20.9 km/h 40 % 0 mm
13:56 -0.1 °C -9 °C 34395 hPa SSW 31.9 km/h 31.9 km/h 38 % 0 mm
14:01 -0.1 °C -9 °C 34395 hPa SSW 28.2 km/h 28.2 km/h 38 % 0 mm
14:06 0 °C -8.9 °C 34395 hPa SW 20.9 km/h 20.9 km/h 38 % 0 mm
14:11 0.3 °C -8.7 °C 34395 hPa SW 15 km/h 15 km/h 38 % 0 mm
14:16 0.4 °C -8.6 °C 34361.1 hPa SW 15 km/h 15 km/h 38 % 0 mm
14:21 -0.1 °C -9.2 °C 34361.1 hPa SW 29.8 km/h 29.8 km/h 37 % 0 mm
14:26 0.1 °C -9.1 °C 34361.1 hPa SW 23.8 km/h 23.8 km/h 37 % 0 mm
14:31 0.1 °C -9.1 °C 34361.1 hPa SSE 26.9 km/h 26.9 km/h 37 % 0 mm
14:36 0.2 °C -9 °C 34361.1 hPa SE 26.9 km/h 26.9 km/h 37 % 0 mm
14:41 0.3 °C -8.7 °C 34361.1 hPa SSW 29.8 km/h 29.8 km/h 38 % 0 mm
14:46 0.4 °C -8.6 °C 34361.1 hPa South 18.3 km/h 18.3 km/h 38 % 0 mm
14:51 0.4 °C -8.8 °C 34361.1 hPa SW 15 km/h 15 km/h 37 % 0 mm
14:56 0.3 °C -8.9 °C 34361.1 hPa SSW 20.9 km/h 20.9 km/h 37 % 0 mm
15:01 0.1 °C -9.1 °C 34395 hPa SSW 17.9 km/h 17.9 km/h 37 % 0 mm
15:06 0.2 °C -9 °C 34395 hPa SSW 20.9 km/h 20.9 km/h 37 % 0 mm
15:11 0.1 °C -9.1 °C 34395 hPa SW 17.9 km/h 17.9 km/h 37 % 0 mm
15:16 0.2 °C -9 °C 34395 hPa West 20.9 km/h 20.9 km/h 37 % 0 mm
15:21 0.4 °C -8.8 °C 34395 hPa South 29.8 km/h 29.8 km/h 37 % 0 mm
15:26 0.2 °C -9 °C 34395 hPa SSW 20.9 km/h 20.9 km/h 37 % 0 mm
15:31 0.3 °C -8.9 °C 34395 hPa SW 27.7 km/h 27.7 km/h 37 % 0 mm
15:36 0.2 °C -9.2 °C 34395 hPa South 32.8 km/h 32.8 km/h 36 % 0 mm
15:41 0.3 °C -9.1 °C 34395 hPa SSW 33.6 km/h 33.6 km/h 36 % 0 mm
15:46 0.1 °C -9.6 °C 34395 hPa SW 38.8 km/h 38.8 km/h 35 % 0 mm
15:51 0.4 °C -9.3 °C 34395 hPa WSW 17.9 km/h 17.9 km/h 35 % 0 mm
15:56 0.4 °C -9.1 °C 34395 hPa South 15 km/h 15 km/h 36 % 0 mm
16:01 0.4 °C -9.3 °C 34395 hPa SSE 23.8 km/h 23.8 km/h 35 % 0 mm
16:06 0.1 °C -9.8 °C 34395 hPa SW 25.9 km/h 25.9 km/h 34 % 0 mm
16:11 0.1 °C -9.6 °C 34395 hPa SW 26.9 km/h 26.9 km/h 35 % 0 mm
16:16 0.2 °C -9.4 °C 34395 hPa West 24.3 km/h 24.3 km/h 35 % 0 mm
16:21 0.3 °C -9.2 °C 34395 hPa SW 20.9 km/h 20.9 km/h 36 % 0 mm
16:26 0.2 °C -9.5 °C 34395 hPa SW 23.8 km/h 23.8 km/h 35 % 0 mm
16:31 0.1 °C -9.8 °C 34361.1 hPa SSW 35.7 km/h 35.7 km/h 34 % 0 mm
16:36 0.2 °C -9.4 °C 34361.1 hPa SSW 15 km/h 15 km/h 35 % 0 mm
16:41 0.1 °C -9.8 °C 34361.1 hPa SW 26.9 km/h 26.9 km/h 34 % 0 mm
16:46 -0.1 °C -9.8 °C 34361.1 hPa SW 32.8 km/h 32.8 km/h 35 % 0 mm
16:51 0.1 °C -9.8 °C 34361.1 hPa SW 20.3 km/h 20.3 km/h 34 % 0 mm
16:56 -0.1 °C -9.8 °C 34361.1 hPa SSW 26.9 km/h 26.9 km/h 35 % 0 mm
17:01 -0.1 °C -9.8 °C 34361.1 hPa South 17.9 km/h 17.9 km/h 35 % 0 mm
17:11 -0.1 °C -9.7 °C 34361.1 hPa SW 17.9 km/h 17.9 km/h 35 % 0 mm
17:16 -0.2 °C -10.1 °C 34361.1 hPa WSW 29.8 km/h 29.8 km/h 34 % 0 mm
17:21 -0.2 °C -9.8 °C 34361.1 hPa West 15 km/h 15 km/h 35 % 0 mm
17:26 -0.2 °C -9.8 °C 34361.1 hPa SW 15 km/h 15 km/h 35 % 0 mm
17:28 -0.2 °C -9.8 °C 34361.1 hPa SW 23.8 km/h 23.8 km/h 35 % 0 mm
17:33 -0.2 °C -9.8 °C 34361.1 hPa South 15 km/h 15 km/h 35 % 0 mm
17:38 -0.3 °C -9.9 °C 34361.1 hPa SSW 23.8 km/h 23.8 km/h 35 % 0 mm
17:43 -0.4 °C -10.2 °C 34361.1 hPa SW 32.3 km/h 32.3 km/h 34 % 0 mm
17:48 -0.3 °C -10.2 °C 34361.1 hPa SW 25.1 km/h 25.1 km/h 34 % 0 mm
17:53 -0.4 °C -10 °C 34361.1 hPa SSW 20.9 km/h 20.9 km/h 35 % 0 mm
17:58 -0.3 °C -9.9 °C 34361.1 hPa SW 20.9 km/h 20.9 km/h 35 % 0 mm
18:03 -0.5 °C -10.1 °C 34361.1 hPa SSW 23.8 km/h 23.8 km/h 35 % 0 mm
18:08 -0.3 °C -9.9 °C 34361.1 hPa SW 20.9 km/h 20.9 km/h 35 % 0 mm
18:13 -0.3 °C -9.9 °C 34361.1 hPa SSW 24.3 km/h 24.3 km/h 35 % 0 mm
18:18 -0.5 °C -10.1 °C 34361.1 hPa SSW 29.8 km/h 29.8 km/h 35 % 0 mm
18:23 -0.6 °C -9.9 °C 34361.1 hPa WSW 20.9 km/h 20.9 km/h 36 % 0 mm
18:24 -0.6 °C -9.9 °C 34361.1 hPa WSW 20.9 km/h 20.9 km/h 36 % 0 mm
18:29 -0.7 °C -10 °C 34361.1 hPa SW 15 km/h 15 km/h 36 % 0 mm
18:34 -0.7 °C -10.1 °C 34361.1 hPa SSW 15 km/h 15 km/h 36 % 0 mm
18:39 -0.7 °C -9.8 °C 34361.1 hPa SSW 19.6 km/h 19.6 km/h 37 % 0 mm
18:44 -0.8 °C -9.9 °C 34361.1 hPa SW 9 km/h 14 km/h 37 % 0 mm
18:49 -0.8 °C -9.9 °C 34361.1 hPa SSW 20.9 km/h 20.9 km/h 37 % 0 mm
18:54 -0.9 °C -10 °C 34361.1 hPa SSW 26.9 km/h 26.9 km/h 37 % 0 mm
18:59 -1 °C -10.1 °C 34361.1 hPa SSW 18.3 km/h 18.3 km/h 37 % 0 mm
19:04 -1.1 °C -10.2 °C 34361.1 hPa WSW 27.2 km/h 27.2 km/h 37 % 0 mm
19:09 -1.3 °C -10.3 °C 34361.1 hPa SW 23.8 km/h 23.8 km/h 37 % 0 mm
19:14 -1.3 °C -10.3 °C 34361.1 hPa SW 26.9 km/h 26.9 km/h 37 % 0 mm
19:19 -1.5 °C -10.5 °C 34361.1 hPa SW 26.9 km/h 26.9 km/h 37 % 0 mm
19:20 -4.8 °C -9.6 °C 34395 hPa WSW 5.1 km/h 7.7 km/h 59 % 0 mm
19:24 -1.6 °C -10.6 °C 34361.1 hPa SW 20.9 km/h 20.9 km/h 37 % 0 mm
19:29 -1.7 °C -10.7 °C 34361.1 hPa WSW 18.3 km/h 18.3 km/h 37 % 0 mm
19:30 -4.9 °C -9.4 °C 34395 hPa SW 7.7 km/h 10.3 km/h 60 % 0 mm
19:34 -1.8 °C -10.3 °C 34361.1 hPa West 29.8 km/h 29.8 km/h 39 % 0 mm
19:39 -1.8 °C -10.3 °C 34361.1 hPa SW 20.9 km/h 20.9 km/h 39 % 0 mm
19:40 -4.9 °C -9.3 °C 34395 hPa SW 7.7 km/h 7.7 km/h 61 % 0 mm
19:44 -1.9 °C -10.4 °C 34361.1 hPa SSW 15 km/h 15 km/h 39 % 0 mm
19:49 -1.9 °C -10.4 °C 34361.1 hPa SW 26.9 km/h 26.9 km/h 39 % 0 mm
19:50 -5 °C -9.4 °C 34395 hPa SW 7.7 km/h 7.7 km/h 61 % 0 mm
19:54 -1.9 °C -10.4 °C 34361.1 hPa SSW 11.9 km/h 11.9 km/h 39 % 0 mm
19:59 -2 °C -10.5 °C 34361.1 hPa WSW 15 km/h 16.1 km/h 39 % 0 mm
20:00 -5.1 °C -9.3 °C 34395 hPa WSW 5.1 km/h 7.7 km/h 62 % 0 mm
20:04 -2.1 °C -10.6 °C 34361.1 hPa South 32.8 km/h 32.8 km/h 39 % 0 mm
20:09 -2.2 °C -10.7 °C 34361.1 hPa WSW 20.9 km/h 20.9 km/h 39 % 0 mm
20:10 -5.1 °C -9.2 °C 34395 hPa WSW 5.1 km/h 7.7 km/h 63 % 0 mm
20:14 -2.3 °C -10.7 °C 34361.1 hPa SSE 22 km/h 22 km/h 39 % 0 mm
20:19 -2.3 °C -10.6 °C 34361.1 hPa SW 17.9 km/h 17.9 km/h 40 % 0 mm
20:20 -5.2 °C -9.3 °C 34395 hPa WSW 5.1 km/h 5.1 km/h 63 % 0 mm
20:24 -2.3 °C -10.6 °C 34361.1 hPa WSW 17.9 km/h 17.9 km/h 40 % 0 mm
20:29 -2.4 °C -10.6 °C 34361.1 hPa WSW 9 km/h 9.3 km/h 40 % 0 mm
20:30 -5.2 °C -9.2 °C 34395 hPa WSW 5.1 km/h 5.1 km/h 64 % 0 mm
20:34 -2.4 °C -10.7 °C 34361.1 hPa SW 11.9 km/h 11.9 km/h 40 % 0 mm
20:39 -2.5 °C -10.7 °C 34361.1 hPa SW 15 km/h 15 km/h 40 % 0 mm
20:44 -2.6 °C -10.8 °C 34361.1 hPa WSW 8 km/h 8 km/h 40 % 0 mm
20:45 -5.3 °C -9.1 °C 34395 hPa SW 5.1 km/h 10.3 km/h 65 % 0 mm
20:49 -2.6 °C -10.8 °C 34361.1 hPa WSW 12.2 km/h 12.2 km/h 40 % 0 mm
20:54 -2.7 °C -10.9 °C 34361.1 hPa SW 11.9 km/h 11.9 km/h 40 % 0 mm
20:55 -5.3 °C -9.2 °C 34361.1 hPa WSW 5.1 km/h 7.7 km/h 65 % 0 mm
20:59 -2.8 °C -10.8 °C 34361.1 hPa West 15 km/h 15 km/h 41 % 0 mm
21:04 -2.8 °C -10.6 °C 34361.1 hPa SW 15 km/h 15 km/h 42 % 0 mm
21:05 -5.3 °C -9.1 °C 34361.1 hPa WSW 2.6 km/h 7.7 km/h 66 % 0 mm
21:09 -2.9 °C -10.7 °C 34361.1 hPa SW 11.9 km/h 11.9 km/h 42 % 0 mm
21:14 -3 °C -10.6 °C 34361.1 hPa SW 11.9 km/h 11.9 km/h 43 % 0 mm
21:15 -5.4 °C -9.1 °C 34395 hPa WSW 5.1 km/h 10.3 km/h 66 % 0 mm
21:19 -3.1 °C -10.6 °C 34361.1 hPa South 20.9 km/h 20.9 km/h 43 % 0 mm
21:24 -3.2 °C -10.7 °C 34361.1 hPa SW 15 km/h 15 km/h 43 % 0 mm
21:25 -5.4 °C -8.9 °C 34395 hPa WSW 5.1 km/h 7.7 km/h 67 % 0 mm
21:29 -3.2 °C -10.6 °C 34327.3 hPa SW 15 km/h 15 km/h 44 % 0 mm
21:34 -3.3 °C -10.6 °C 34327.3 hPa SW 9 km/h 9 km/h 44 % 0 mm
21:35 -5.4 °C -9 °C 34395 hPa WSW 2.6 km/h 7.7 km/h 67 % 0 mm
21:39 -3.3 °C -10.4 °C 34327.3 hPa WSW 17.9 km/h 17.9 km/h 45 % 0 mm
21:44 -3.4 °C -10.5 °C 34361.1 hPa SSW 12.2 km/h 12.2 km/h 45 % 0 mm
21:45 -5.5 °C -9.1 °C 34395 hPa West 5.1 km/h 7.7 km/h 67 % 0 mm
21:49 -3.4 °C -10.6 °C 34361.1 hPa SSW 6 km/h 6 km/h 45 % 0 mm
21:54 -3.5 °C -10.4 °C 34361.1 hPa SW 11.9 km/h 11.9 km/h 46 % 0 mm
21:59 -3.6 °C -10.5 °C 34361.1 hPa SW 11.9 km/h 11.9 km/h 46 % 0 mm
22:04 -3.6 °C -10.5 °C 34361.1 hPa SW 9 km/h 9 km/h 46 % 0 mm
22:05 -5.7 °C -9 °C 34361.1 hPa WSW 5.1 km/h 7.7 km/h 69 % 0 mm
22:09 -3.7 °C -10.4 °C 34361.1 hPa SW 11.9 km/h 11.9 km/h 47 % 0 mm
22:10 -5.7 °C -9 °C 34361.1 hPa WSW 5.1 km/h 7.7 km/h 69 % 0 mm
22:14 -3.7 °C -10.4 °C 34361.1 hPa SW 11.9 km/h 11.9 km/h 47 % 0 mm
22:15 -5.7 °C -9 °C 34361.1 hPa SW 5.1 km/h 7.7 km/h 69 % 0 mm
22:19 -3.8 °C -10.3 °C 34361.1 hPa WSW 9.3 km/h 9.3 km/h 48 % 0 mm
22:24 -3.8 °C -10.4 °C 34361.1 hPa SSW 20.9 km/h 20.9 km/h 48 % 0 mm
22:25 -5.8 °C -9.2 °C 34361.1 hPa SW 5.1 km/h 5.1 km/h 68 % 0 mm
22:29 -3.9 °C -10.2 °C 34361.1 hPa WSW 9 km/h 9 km/h 49 % 0 mm
22:34 -3.9 °C -10.1 °C 34361.1 hPa West 17.9 km/h 17.9 km/h 50 % 0 mm
22:35 -5.8 °C -9.3 °C 34361.1 hPa SW 5.1 km/h 7.7 km/h 68 % 0 mm
22:39 -3.9 °C -9.9 °C 34361.1 hPa West 9 km/h 9 km/h 51 % 0 mm
22:44 -4 °C -10 °C 34361.1 hPa WSW 6.3 km/h 6.3 km/h 51 % 0 mm
22:45 -5.8 °C -9.4 °C 34361.1 hPa WSW 2.6 km/h 7.7 km/h 67 % 0 mm
22:49 -4 °C -10 °C 34361.1 hPa SSW 6 km/h 6 km/h 51 % 0 mm
22:54 -4.1 °C -9.9 °C 34361.1 hPa West 6 km/h 6 km/h 52 % 0 mm
22:55 -5.8 °C -9.4 °C 34327.3 hPa WSW 5.1 km/h 5.1 km/h 66 % 0 mm
22:59 -4.1 °C -9.9 °C 34395 hPa SW 9 km/h 9 km/h 52 % 0 mm
23:04 -4.2 °C -10 °C 34395 hPa SSW 9 km/h 9 km/h 52 % 0 mm
23:05 -5.8 °C -9.6 °C 34327.3 hPa WSW 5.1 km/h 10.3 km/h 65 % 0 mm
23:09 -4.2 °C -9.9 °C 34395 hPa WSW 15 km/h 15 km/h 53 % 0 mm
23:14 -4.3 °C -9.9 °C 34395 hPa SW 10.3 km/h 10.3 km/h 53 % 0 mm
23:15 -5.8 °C -9.7 °C 34327.3 hPa WSW 5.1 km/h 7.7 km/h 64 % 0 mm
23:19 -4.3 °C -9.8 °C 34395 hPa SW 9.3 km/h 9.3 km/h 54 % 0 mm
23:24 -4.4 °C -9.9 °C 34395 hPa SW 11.9 km/h 11.9 km/h 54 % 0 mm
23:25 -5.7 °C -9.8 °C 34327.3 hPa WSW 7.7 km/h 7.7 km/h 63 % 0 mm
23:29 -4.4 °C -9.7 °C 34395 hPa West 9 km/h 9 km/h 55 % 0 mm
23:34 -4.4 °C -9.8 °C 34395 hPa SW 9 km/h 9 km/h 55 % 0 mm
23:35 -5.7 °C -9.9 °C 34327.3 hPa WSW 5.1 km/h 7.7 km/h 62 % 0 mm
23:39 -4.5 °C -9.7 °C 34395 hPa SW 4.2 km/h 6.3 km/h 56 % 0 mm
23:44 -4.6 °C -9.6 °C 34361.1 hPa WSW 6.3 km/h 6.3 km/h 57 % 0 mm
23:45 -5.6 °C -9.9 °C 34327.3 hPa West 7.7 km/h 7.7 km/h 61 % 0 mm
23:49 -4.6 °C -9.6 °C 34361.1 hPa WSW 9 km/h 9 km/h 57 % 0 mm
23:54 -4.6 °C -9.5 °C 34361.1 hPa SW 9 km/h 9 km/h 58 % 0 mm
23:55 -5.6 °C -10.1 °C 34327.3 hPa West 5.1 km/h 10.3 km/h 60 % 0 mm
23:59 -4.7 °C -9.6 °C 34395 hPa WSW 11.9 km/h 11.9 km/h 58 % 0 mm
Meteo Sesrovires
Elogis d' Weather Underground - 4 mb

Guio original per  Jim McMurry - jmcmurry@mwt.net Adaptat per a la plantilla per  Wim van der Kuil - Leuven-Template.eu

Trobareu la nostra informacio del temps tambe a:

Weather Underground

AWEKAS